Malaysia Virtual Airlines Airport Information Service

Jeddah King Abdul Aziz International Airport

ICAO: OEJN Country: Saudi Arabia
Latitude: 21.6796 Longitude: 39.1565
Latest Arrival : D7700 (WMKK-OEJN) Latest Departure : D7701 (OEJN-WMKK)


WX CaptureLIVE
Data provided by noaa.gov | Fetched at 17:18:20

METAR : OEJN 261700Z 32012KT 9999 FEW040 34/20 Q1003 NOSIG

TAF : OEJN 261100Z 2612/2718 33014KT 9999 FEW040 BECMG 2620/2622 VRB03KT


Runway Data for OEJN
Data provided by openaviationdata.com

Runway ID Mag Var Hdg Length Elevation Surface ILS Freq ILS Id ILS Slope
16L 2 157° 12143 ft 48 ft Asphalt 108.5 IDFJ 3
16R 2 157° 12506 ft 48 ft Concrete 109.3 IJDD 3
16C 2 157° 10859 ft 48 ft Concrete 109.7 IJDC 3
34L 2 337° 12506 ft 48 ft Concrete 109.1 IJDL 3
34R 2 337° 12143 ft 48 ft Asphalt 108.3 IEAL 3
34C 2 337° 10859 ft 48 ft Concrete 109.5 IJDW 3

Jeddah King Abdul Aziz International Airport , Saudi Arabia
Use only for reference purposes



Not for navigational purposes.